Terminal Aerodrome Forecast
Issued by NWS Sterling, VA

Current Version | Previous Version | Graphics & Text | Print | Product List | Glossary On
Versions: 1 2 3 4 5 6 7 8 9 10 11 12 13 14 15 16 17 18 19 20 21 22 23 24 25 26 27
000
FTUS41 KLWX 221138
TAFDCA
TAF
KDCA 221138Z 2212/2318 14003KT 6SM -SHRA BKN015 OVC025
     FM221500 17005KT P6SM BKN025
     FM221800 17007KT P6SM VCTS BKN040CB
     FM222200 21005KT P6SM BKN070
     FM230900 25005KT P6SM BKN060=

USA.gov is the U.S. government's official web portal to all federal, state and local government web resources and services.